Time,TemperatureF,DewpointF,PressureIn,WindDirection,WindDirectionDegrees,WindSpeedMPH,WindSpeedGustMPH,Humidity,HourlyPrecipIn,Conditions,Clouds,dailyrainin,SoftwareType,DateUTC
2013-10-02 00:04:00,65.9,58.1,29.83,West,270,0.0,0.0,76,0.00,,,0.00,WUHU216HW,2013-10-02 05:04:00,
2013-10-02 00:09:00,65.9,58.1,29.83,West,270,0.0,0.0,76,0.00,,,0.00,WUHU216HW,2013-10-02 05:09:00,
2013-10-02 00:30:00,65.2,57.8,29.84,West,270,0.0,0.0,77,0.00,,,0.00,WUHU216HW,2013-10-02 05:30:00,
2013-10-02 00:35:00,65.2,57.8,29.84,West,270,0.0,0.0,77,0.00,,,0.00,WUHU216HW,2013-10-02 05:35:00,
2013-10-02 01:00:00,64.4,57.8,29.85,NNE,23,0.0,0.0,79,0.00,,,0.00,WUHU216HW,2013-10-02 06:00:00,
2013-10-02 01:05:00,64.4,57.8,29.85,NNE,23,0.0,0.0,79,0.00,,,0.00,WUHU216HW,2013-10-02 06:05:00,
2013-10-02 01:30:00,63.7,57.1,29.85,WNW,293,0.0,0.0,79,0.00,,,0.00,WUHU216HW,2013-10-02 06:30:00,
2013-10-02 01:35:00,63.7,57.1,29.85,WNW,293,0.0,0.0,79,0.00,,,0.00,WUHU216HW,2013-10-02 06:35:00,
2013-10-02 02:00:00,63.0,57.1,29.87,WNW,293,0.0,0.0,81,0.00,,,0.00,WUHU216HW,2013-10-02 07:00:00,
2013-10-02 02:05:00,63.0,57.1,29.87,WNW,293,0.0,0.0,81,0.00,,,0.00,WUHU216HW,2013-10-02 07:05:00,
2013-10-02 02:30:00,63.4,57.4,29.87,WNW,293,0.0,0.0,81,0.00,,,0.00,WUHU216HW,2013-10-02 07:30:00,
2013-10-02 02:35:00,63.4,57.4,29.87,WNW,293,0.0,0.0,81,0.00,,,0.00,WUHU216HW,2013-10-02 07:35:00,
2013-10-02 03:00:00,63.4,57.4,29.87,WNW,293,0.0,0.0,81,0.00,,,0.00,WUHU216HW,2013-10-02 08:00:00,
2013-10-02 03:05:00,63.4,57.4,29.87,WNW,293,0.0,0.0,81,0.00,,,0.00,WUHU216HW,2013-10-02 08:05:00,
2013-10-02 03:30:00,63.7,58.2,29.87,NW,315,0.0,0.0,82,0.00,,,0.00,WUHU216HW,2013-10-02 08:30:00,
2013-10-02 03:35:00,63.7,58.2,29.87,NW,315,0.0,0.0,82,0.00,,,0.00,WUHU216HW,2013-10-02 08:35:00,
2013-10-02 04:00:00,64.1,57.8,29.88,NNW,338,1.1,1.1,80,0.00,,,0.00,WUHU216HW,2013-10-02 09:00:00,
2013-10-02 04:05:00,64.1,57.8,29.88,NNW,338,1.1,1.1,80,0.00,,,0.00,WUHU216HW,2013-10-02 09:05:00,
2013-10-02 04:30:00,64.3,58.0,29.88,NE,45,0.0,0.0,80,0.00,,,0.00,WUHU216HW,2013-10-02 09:30:00,
2013-10-02 04:35:00,64.3,58.0,29.88,NE,45,0.0,0.0,80,0.00,,,0.00,WUHU216HW,2013-10-02 09:35:00,
2013-10-02 05:00:00,63.9,57.6,29.89,NW,315,0.2,0.2,80,0.00,,,0.00,WUHU216HW,2013-10-02 10:00:00,
2013-10-02 05:05:00,63.9,57.6,29.89,NW,315,0.2,0.2,80,0.00,,,0.00,WUHU216HW,2013-10-02 10:05:00,
2013-10-02 05:30:00,64.1,57.8,29.89,NNW,338,0.2,0.2,80,0.00,,,0.00,WUHU216HW,2013-10-02 10:30:00,
2013-10-02 05:35:00,64.1,57.8,29.89,NNW,338,0.2,0.2,80,0.00,,,0.00,WUHU216HW,2013-10-02 10:35:00,
2013-10-02 06:00:00,63.7,56.7,29.90,North,0,0.0,0.0,78,0.00,,,0.00,WUHU216HW,2013-10-02 11:00:00,
2013-10-02 06:05:00,63.7,56.7,29.90,North,0,0.0,0.0,78,0.00,,,0.00,WUHU216HW,2013-10-02 11:05:00,
2013-10-02 06:30:00,63.5,56.2,29.90,NNE,23,0.0,0.0,77,0.00,,,0.00,WUHU216HW,2013-10-02 11:30:00,
2013-10-02 06:35:00,63.5,56.2,29.90,NNE,23,0.0,0.0,77,0.00,,,0.00,WUHU216HW,2013-10-02 11:35:00,
2013-10-02 07:00:00,63.2,55.4,29.91,East,90,0.0,0.0,76,0.00,,,0.00,WUHU216HW,2013-10-02 12:00:00,
2013-10-02 07:05:00,63.2,55.4,29.91,East,90,0.0,0.0,76,0.00,,,0.00,WUHU216HW,2013-10-02 12:05:00,
2013-10-02 07:30:00,63.0,55.3,29.91,ENE,68,0.4,0.4,76,0.00,,,0.00,WUHU216HW,2013-10-02 12:30:00,
2013-10-02 07:35:00,63.0,55.3,29.91,ENE,68,0.4,0.4,76,0.00,,,0.00,WUHU216HW,2013-10-02 12:35:00,
2013-10-02 08:00:00,63.7,55.6,29.92,NE,45,0.0,0.0,75,0.00,,,0.00,WUHU216HW,2013-10-02 13:00:00,
2013-10-02 08:05:00,63.7,55.6,29.92,NE,45,0.0,0.0,75,0.00,,,0.00,WUHU216HW,2013-10-02 13:05:00,
2013-10-02 08:30:00,64.8,55.3,29.92,ESE,113,1.3,1.3,71,0.00,,,0.00,WUHU216HW,2013-10-02 13:30:00,
2013-10-02 08:35:00,64.8,55.3,29.92,ESE,113,1.3,1.3,71,0.00,,,0.00,WUHU216HW,2013-10-02 13:35:00,
2013-10-02 09:00:00,66.4,53.8,29.93,ESE,113,0.9,0.9,64,0.00,,,0.00,WUHU216HW,2013-10-02 14:00:00,
2013-10-02 09:05:00,66.4,53.8,29.93,ESE,113,0.9,0.9,64,0.00,,,0.00,WUHU216HW,2013-10-02 14:05:00,
2013-10-02 09:30:00,68.0,51.2,29.93,East,90,1.6,1.6,55,0.00,,,0.00,WUHU216HW,2013-10-02 14:30:00,
2013-10-02 09:35:00,68.0,51.2,29.93,East,90,1.6,1.6,55,0.00,,,0.00,WUHU216HW,2013-10-02 14:35:00,
2013-10-02 10:00:00,69.7,51.2,29.93,East,90,4.0,4.0,52,0.00,,,0.00,WUHU216HW,2013-10-02 15:00:00,
2013-10-02 10:05:00,69.7,51.2,29.93,East,90,4.0,4.0,52,0.00,,,0.00,WUHU216HW,2013-10-02 15:05:00,
2013-10-02 10:30:00,71.6,50.9,29.93,ESE,113,1.6,1.6,48,0.00,,,0.00,WUHU216HW,2013-10-02 15:30:00,
2013-10-02 10:33:00,71.6,50.9,29.93,ESE,113,1.6,1.6,48,0.00,,,0.00,WUHU216HW,2013-10-02 15:33:00,
2013-10-02 10:38:00,71.6,50.9,29.93,ESE,113,1.6,1.6,48,0.00,,,0.00,WUHU216HW,2013-10-02 15:38:00,
2013-10-02 11:00:00,74.9,52.0,29.92,ESE,113,2.7,2.7,45,0.00,,,0.00,WUHU216HW,2013-10-02 16:00:00,
2013-10-02 11:05:00,74.9,52.0,29.92,ESE,113,2.7,2.7,45,0.00,,,0.00,WUHU216HW,2013-10-02 16:05:00,
2013-10-02 11:30:00,77.6,53.9,29.92,WSW,248,1.1,1.1,44,0.00,,,0.00,WUHU216HW,2013-10-02 16:30:00,
2013-10-02 11:35:00,77.6,53.9,29.92,WSW,248,1.1,1.1,44,0.00,,,0.00,WUHU216HW,2013-10-02 16:35:00,
2013-10-02 12:00:00,79.4,54.9,29.91,SE,135,3.1,3.1,43,0.00,,,0.00,WUHU216HW,2013-10-02 17:00:00,
2013-10-02 12:05:00,79.4,54.9,29.91,SE,135,3.1,3.1,43,0.00,,,0.00,WUHU216HW,2013-10-02 17:05:00,
2013-10-02 12:30:00,81.5,55.6,29.90,SSW,203,4.7,4.7,41,0.00,,,0.00,WUHU216HW,2013-10-02 17:30:00,
2013-10-02 12:35:00,81.5,55.6,29.90,SSW,203,4.7,4.7,41,0.00,,,0.00,WUHU216HW,2013-10-02 17:35:00,
2013-10-02 13:00:00,83.9,57.7,29.89,SE,135,1.6,1.6,41,0.00,,,0.00,WUHU216HW,2013-10-02 18:00:00,
2013-10-02 13:05:00,83.9,57.7,29.89,SE,135,1.6,1.6,41,0.00,,,0.00,WUHU216HW,2013-10-02 18:05:00,
2013-10-02 13:30:00,85.3,58.4,29.87,ENE,68,2.9,2.9,40,0.00,,,0.00,WUHU216HW,2013-10-02 18:30:00,
2013-10-02 13:35:00,85.3,58.4,29.87,ENE,68,2.9,2.9,40,0.00,,,0.00,WUHU216HW,2013-10-02 18:35:00,
2013-10-02 14:00:00,89.6,62.1,29.86,NW,315,0.2,0.2,40,0.00,,,0.00,WUHU216HW,2013-10-02 19:00:00,
2013-10-02 14:05:00,89.6,62.1,29.86,NW,315,0.2,0.2,40,0.00,,,0.00,WUHU216HW,2013-10-02 19:05:00,
2013-10-02 14:30:00,94.3,63.9,29.85,West,270,0.7,0.7,37,0.00,,,0.00,WUHU216HW,2013-10-02 19:30:00,
2013-10-02 14:35:00,94.3,63.9,29.85,West,270,0.7,0.7,37,0.00,,,0.00,WUHU216HW,2013-10-02 19:35:00,
2013-10-02 15:00:00,90.7,63.7,29.84,SSW,203,3.6,3.6,41,0.00,,,0.00,WUHU216HW,2013-10-02 20:00:00,
2013-10-02 15:05:00,90.7,63.7,29.84,SSW,203,3.6,3.6,41,0.00,,,0.00,WUHU216HW,2013-10-02 20:05:00,
2013-10-02 15:30:00,84.8,61.7,29.84,ESE,113,1.3,1.3,46,0.00,,,0.00,WUHU216HW,2013-10-02 20:30:00,
2013-10-02 15:35:00,84.8,61.7,29.84,ESE,113,1.3,1.3,46,0.00,,,0.00,WUHU216HW,2013-10-02 20:35:00,
2013-10-02 16:00:00,83.2,62.6,29.82,ESE,113,1.3,1.3,50,0.00,,,0.00,WUHU216HW,2013-10-02 21:00:00,
2013-10-02 16:05:00,83.2,62.6,29.82,ESE,113,1.3,1.3,50,0.00,,,0.00,WUHU216HW,2013-10-02 21:05:00,
2013-10-02 16:30:00,81.9,61.9,29.81,SSW,203,2.7,2.7,51,0.00,,,0.00,WUHU216HW,2013-10-02 21:30:00,
2013-10-02 16:35:00,81.9,61.9,29.81,SSW,203,2.7,2.7,51,0.00,,,0.00,WUHU216HW,2013-10-02 21:35:00,
2013-10-02 17:00:00,81.5,61.7,29.80,SE,135,1.6,1.6,51,0.00,,,0.00,WUHU216HW,2013-10-02 22:00:00,
2013-10-02 17:05:00,81.5,61.7,29.80,SE,135,1.6,1.6,51,0.00,,,0.00,WUHU216HW,2013-10-02 22:05:00,
2013-10-02 17:30:00,80.8,61.5,29.80,ESE,113,1.1,1.1,52,0.00,,,0.00,WUHU216HW,2013-10-02 22:30:00,
2013-10-02 17:35:00,80.8,61.5,29.80,ESE,113,1.1,1.1,52,0.00,,,0.00,WUHU216HW,2013-10-02 22:35:00,
2013-10-02 18:00:00,79.6,60.9,29.81,SE,135,2.5,2.5,53,0.00,,,0.00,WUHU216HW,2013-10-02 23:00:00,
2013-10-02 18:05:00,79.6,60.9,29.81,SE,135,2.5,2.5,53,0.00,,,0.00,WUHU216HW,2013-10-02 23:05:00,
2013-10-02 18:30:00,78.7,61.1,29.81,ESE,113,1.3,1.3,55,0.00,,,0.00,WUHU216HW,2013-10-02 23:30:00,
2013-10-02 18:35:00,78.7,61.1,29.81,ESE,113,1.3,1.3,55,0.00,,,0.00,WUHU216HW,2013-10-02 23:35:00,
2013-10-02 18:59:00,77.2,60.8,29.81,South,180,2.2,2.2,57,0.00,,,0.00,WUHU216HW,2013-10-02 23:59:00,
2013-10-02 19:00:00,77.2,60.8,29.81,South,180,2.2,2.2,57,0.00,,,0.00,WUHU216HW,2013-10-03 00:00:00,
2013-10-02 19:05:00,77.2,60.8,29.81,South,180,2.2,2.2,57,0.00,,,0.00,WUHU216HW,2013-10-03 00:05:00,
2013-10-02 19:30:00,76.1,60.8,29.80,ESE,113,1.8,1.8,59,0.00,,,0.00,WUHU216HW,2013-10-03 00:30:00,
2013-10-02 19:34:00,76.1,60.8,29.80,ESE,113,1.8,1.8,59,0.00,,,0.00,WUHU216HW,2013-10-03 00:34:00,
2013-10-02 19:59:00,75.4,60.7,29.80,SW,225,1.1,1.1,60,0.00,,,0.00,WUHU216HW,2013-10-03 00:59:00,
2013-10-02 20:05:00,75.4,60.7,29.80,SW,225,1.1,1.1,60,0.00,,,0.00,WUHU216HW,2013-10-03 01:05:00,
2013-10-02 20:30:00,74.7,60.4,29.81,South,180,1.3,1.3,61,0.00,,,0.00,WUHU216HW,2013-10-03 01:30:00,
2013-10-02 20:35:00,74.7,60.4,29.81,South,180,1.3,1.3,61,0.00,,,0.00,WUHU216HW,2013-10-03 01:35:00,
2013-10-02 20:59:00,73.4,60.0,29.80,SE,135,0.4,0.4,63,0.00,,,0.00,WUHU216HW,2013-10-03 01:59:00,
2013-10-02 21:04:00,73.4,60.0,29.80,SE,135,0.4,0.4,63,0.00,,,0.00,WUHU216HW,2013-10-03 02:04:00,
2013-10-02 21:05:00,73.4,60.0,29.80,SE,135,0.4,0.4,63,0.00,,,0.00,WUHU216HW,2013-10-03 02:05:00,
2013-10-02 21:30:00,71.8,59.4,29.81,SW,225,0.0,0.0,65,0.00,,,0.00,WUHU216HW,2013-10-03 02:30:00,
2013-10-02 21:35:00,71.8,59.4,29.81,SW,225,0.0,0.0,65,0.00,,,0.00,WUHU216HW,2013-10-03 02:35:00,
2013-10-02 21:59:00,70.6,59.1,29.81,SSE,158,2.5,2.5,67,0.00,,,0.00,WUHU216HW,2013-10-03 02:59:00,
2013-10-02 22:04:00,70.6,59.1,29.81,SSE,158,2.5,2.5,67,0.00,,,0.00,WUHU216HW,2013-10-03 03:04:00,
2013-10-02 22:30:00,70.9,59.9,29.80,SW,225,0.4,0.4,68,0.00,,,0.00,WUHU216HW,2013-10-03 03:30:00,
2013-10-02 22:35:00,70.9,59.9,29.80,SW,225,0.4,0.4,68,0.00,,,0.00,WUHU216HW,2013-10-03 03:35:00,
2013-10-02 22:59:00,70.4,59.7,29.80,South,180,0.9,0.9,69,0.00,,,0.00,WUHU216HW,2013-10-03 03:59:00,
2013-10-02 23:01:00,70.4,59.7,29.80,South,180,0.9,0.9,69,0.00,,,0.00,WUHU216HW,2013-10-03 04:01:00,
2013-10-02 23:06:00,70.4,59.7,29.80,South,180,0.9,0.9,69,0.00,,,0.00,WUHU216HW,2013-10-03 04:06:00,
2013-10-02 23:30:00,70.2,59.9,29.80,SSW,203,1.1,1.1,70,0.00,,,0.00,WUHU216HW,2013-10-03 04:30:00,
2013-10-02 23:35:00,70.2,59.9,29.80,SSW,203,1.1,1.1,70,0.00,,,0.00,WUHU216HW,2013-10-03 04:35:00,
2013-10-02 23:59:00,70.6,61.0,29.79,WSW,248,1.8,1.8,72,0.00,,,0.00,WUHU216HW,2013-10-03 04:59:00,